NCAR-RAP Real-Time Weather Data

Output produced by METARs form (10 April 2020  07:22 UTC)
found at http://weather.rap.ucar.edu/surface/
 
KGRB 100653Z AUTO 29009KT 10SM OVC042 01/M04 A2990 RMK AO2 SLP132 T00111044
KGRB 100553Z AUTO 29010KT 10SM OVC041 02/M04 A2989 RMK AO2 SLP128 T00171044 10050 20017 400720017 53010
KGRB 100453Z AUTO 29010KT 10SM BKN046 OVC060 02/M05 A2988 RMK AO2 SLP124 T00171050
KGRB 100353Z 31012G22KT 10SM BKN080 02/M06 A2986 RMK AO2 PK WND 32026/0258 SLP118 T00221061
KGRB 100253Z 32013G25KT 10SM CLR 03/M06 A2986 RMK AO2 PK WND 32027/0231 SLP117 T00281061 53030
KGRB 100153Z 32011KT 10SM CLR 03/M07 A2983 RMK AO2 SLP107 T00331067
KGRB 100053Z 32016KT 10SM OVC075 04/M08 A2979 RMK AO2 SLP095 T00441078
KGRB 092353Z 32015G24KT 10SM CLR 05/M07 A2977 RMK AO2 PK WND 33029/2257 SLP086 60000 T00501072 10067 20022 53027
KGRB 092253Z 32015G28KT 10SM CLR 06/M08 A2973 RMK AO2 PK WND 33029/2203 SLP073 T00561083
KGRB 092153Z 32020G29KT 10SM SCT075 BKN090 06/M08 A2970 RMK AO2 PK WND 35031/2141 WSHFT 2105 RAB2054E07 SLP063 P0000 T00611083
KGRB 092125Z 32017KT 10SM FEW065 BKN080 OVC095 07/M07 A2969 RMK AO2 PK WND 32027/2115 WSHFT 2105 RAB2054E07 P0000 T00671072
KGRB 092053Z 25013KT 9SM FEW045 BKN070 OVC110 05/M03 A2969 RMK AO2 PK WND 34027/2027 WSHFT 2017 RAB28E40 SLP059 P0000 60000 T00501033 53007
KGRB 092037Z 31009KT 9SM -RA SCT050 BKN070 OVC100 06/M04 A2968 RMK AO2 PK WND 34027/2027 WSHFT 2017 RAB28 P0000 T00561044
KGRB 091953Z 28018G22KT 10SM FEW100 06/M03 A2967 RMK AO2 PK WND 31034/1900 RAB00E04SNE26 SLP052 P0000 T00561033
KGRB 091927Z 27011G20KT 9SM SCT023 SCT036 BKN095 04/M01 A2967 RMK AO2 PK WND 31034/1900 LTG DSNT SE RAB00E04SNE26 P0000 T00441011
KGRB 091918Z 30007KT 2SM -SN SCT024 BKN037 OVC095 02/M02 A2968 RMK AO2 PK WND 31034/1900 RAB00E04 P0000 T00221022
KGRB 091910Z 31015G33KT 1 3/4SM -SN BKN021 OVC034 02/M02 A2969 RMK AO2 PK WND 31034/1900 VIS 1V4 RAB00E04 P0000 T00221017
KGRB 091853Z 27014G20KT 4SM -SN FEW023 BKN034 OVC070 04/M02 A2967 RMK AO2 PK WND 29029/1840 RAB42E45SNB45 SLP052 P0000 T00441022
KGRB 091846Z 33008G29KT 1 3/4SM -SN SCT020 BKN034 BKN046 03/M02 A2968 RMK AO2 PK WND 29029/1840 RAB42E45SNB45 P0000 T00281022
KGRB 091753Z 29020G29KT FEW044 06/M04 A2967 RMK AO2 PK WND 28029/1748 SNE19 SLP051 P0000 60000 T00561039 10061 20017 53001 RVRNO $
KGRB 091653Z 29010G23KT -SN SCT038 BKN050 OVC075 03/M04 A2966 RMK AO2 PK WND 31029/1603 RAB49E53SNB53 SLP049 P0000 T00331039 RVRNO $
KGRB 091553Z 30019G25KT 10SM FEW045 SCT055 05/M05 A2966 RMK AO2 PK WND 28028/1504 SLP046 T00501050
KGRB 091453Z 29018G27KT 10SM BKN045 04/M05 A2966 RMK AO2 PK WND 29027/1420 SLP049 T00441050 58004
KGRB 091353Z 28019G24KT 10SM CLR 03/M05 A2968 RMK AO2 PK WND 31030/1311 SLP054 T00331050
KGRB 091253Z 28016G25KT 10SM CLR 03/M06 A2969 RMK AO2 SLP057 T00281056
KGRB 091153Z 29012KT 10SM CLR 02/M07 A2968 RMK AO2 SLP054 70001 T00171067 10072 20017 53012
KGRB 091053Z 29016G25KT 10SM CLR 02/M06 A2966 RMK AO2 SLP048 T00221061
KGRB 090953Z AUTO 29012KT 10SM SCT044 BKN075 04/M04 A2966 RMK AO2 SLP046 T00391039
KGRB 090853Z AUTO 27006KT 10SM CLR 04/M03 A2964 RMK AO2 SLP041 T00391033 57000